Time;durP1;ratioP1;P1;durP2;ratioP2;P2;SDS_P1;SDS_P2;PMS_P1;PMS_P2;Temp;Humidity;BMP_temperature;BMP_pressure;BME280_temperature;BME280_humidity;BME280_pressure;Samples;Min_cycle;Max_cycle;Signal;HPM_P1;HPM_P2
2021/04/22 00:00:18;;;;;;;7.73;6.97;;;18.90;40.90;;;;;;5048633;28;20474;-45
2021/04/22 00:02:44;;;;;;;9.07;7.80;;;18.90;40.70;;;;;;5045011;28;20200;-43
2021/04/22 00:05:15;;;;;;;8.77;7.87;;;18.90;41.10;;;;;;5044344;28;20890;-42
2021/04/22 00:07:40;;;;;;;12.50;6.80;;;19.00;40.50;;;;;;5047199;28;20201;-44
2021/04/22 00:10:09;;;;;;;6.67;6.07;;;19.00;40.50;;;;;;5047653;28;20798;-42
2021/04/22 00:12:35;;;;;;;10.30;7.60;;;19.00;40.20;;;;;;5045983;28;20189;-46
2021/04/22 00:15:00;;;;;;;8.43;7.17;;;19.00;40.10;;;;;;5047149;28;20447;-46
2021/04/22 00:17:26;;;;;;;8.50;6.97;;;19.00;40.20;;;;;;5047911;28;20969;-44
2021/04/22 00:19:51;;;;;;;8.60;7.80;;;18.90;40.20;;;;;;5046990;28;20197;-46
2021/04/22 00:22:17;;;;;;;8.27;6.80;;;18.70;40.60;;;;;;5047424;28;20670;-42
2021/04/22 00:24:43;;;;;;;8.13;7.33;;;18.50;41.20;;;;;;5049618;28;20197;-45
2021/04/22 00:27:08;;;;;;;7.80;6.90;;;18.40;41.40;;;;;;5047441;28;20193;-42
2021/04/22 00:29:34;;;;;;;9.00;6.90;;;18.20;41.80;;;;;;5045569;28;20193;-42
2021/04/22 00:31:59;;;;;;;9.50;6.53;;;18.10;42.80;;;;;;5045218;28;20270;-42
2021/04/22 00:34:25;;;;;;;6.60;6.00;;;17.90;43.10;;;;;;5049144;28;20613;-42
2021/04/22 00:36:50;;;;;;;8.00;6.80;;;18.00;42.50;;;;;;5042961;28;20311;-42
2021/04/22 00:39:16;;;;;;;9.70;7.10;;;18.10;42.30;;;;;;5048929;28;20189;-44
2021/04/22 00:41:41;;;;;;;7.70;6.83;;;18.20;42.00;;;;;;5047350;28;20974;-43
2021/04/22 00:44:09;;;;;;;12.03;7.20;;;18.30;42.00;;;;;;5046079;28;20188;-44
2021/04/22 00:46:35;;;;;;;8.23;6.93;;;18.40;42.00;;;;;;5036868;28;20195;-42
2021/04/22 00:49:01;;;;;;;7.10;6.40;;;18.50;41.80;;;;;;5045024;28;20608;-46
2021/04/22 00:51:27;;;;;;;9.27;7.63;;;18.40;41.70;;;;;;5046034;28;20451;-43
2021/04/22 00:53:53;;;;;;;6.97;6.27;;;18.50;42.00;;;;;;5054054;28;20188;-42
2021/04/22 00:56:18;;;;;;;7.60;6.90;;;18.40;41.90;;;;;;5052632;28;20180;-43
2021/04/22 00:58:44;;;;;;;7.80;7.00;;;18.40;42.00;;;;;;5047064;28;20946;-44
2021/04/22 01:01:10;;;;;;;8.57;6.37;;;18.20;42.30;;;;;;5051193;28;20223;-43
2021/04/22 01:03:35;;;;;;;7.70;6.00;;;18.20;43.10;;;;;;5049481;28;20208;-42
2021/04/22 01:06:03;;;;;;;7.27;6.50;;;18.10;43.00;;;;;;5051100;28;20201;-42
2021/04/22 01:08:29;;;;;;;6.87;6.17;;;18.20;43.60;;;;;;5050622;28;20204;-42
2021/04/22 01:10:55;;;;;;;7.10;6.47;;;18.20;42.90;;;;;;5050889;28;20488;-44
2021/04/22 01:13:21;;;;;;;8.43;6.33;;;18.20;42.60;;;;;;5049557;28;20276;-42
2021/04/22 01:15:47;;;;;;;7.20;6.40;;;18.00;42.80;;;;;;5050353;28;20439;-44
2021/04/22 01:18:14;;;;;;;8.63;6.83;;;18.00;43.40;;;;;;5051893;28;20451;-44
2021/04/22 01:20:46;;;;;;;9.70;8.77;;;18.00;43.30;;;;;;5050308;28;20227;-44
2021/04/22 01:23:12;;;;;;;8.77;7.87;;;17.90;43.40;;;;;;5044576;28;20466;-42
2021/04/22 01:25:41;;;;;;;10.20;7.23;;;17.80;43.80;;;;;;5052765;28;20451;-42
2021/04/22 01:28:09;;;;;;;9.07;8.27;;;17.60;44.10;;;;;;5046132;28;20447;-43
2021/04/22 01:30:39;;;;;;;7.67;7.00;;;17.60;44.50;;;;;;5050377;28;20450;-42
2021/04/22 01:33:06;;;;;;;6.93;6.33;;;17.70;44.80;;;;;;5046723;28;20867;-42
2021/04/22 01:35:38;;;;;;;8.93;8.00;;;17.80;44.70;;;;;;5042852;28;20456;-42
2021/04/22 01:38:06;;;;;;;8.10;7.30;;;18.00;44.30;;;;;;5048037;28;20826;-42
2021/04/22 01:40:35;;;;;;;6.90;6.30;;;18.10;44.20;;;;;;5051518;28;20892;-42
2021/04/22 01:43:00;;;;;;;9.90;7.07;;;18.20;44.10;;;;;;5041727;28;20457;-43
2021/04/22 01:45:26;;;;;;;8.70;7.90;;;18.30;43.90;;;;;;5043543;28;20923;-42
2021/04/22 01:47:53;;;;;;;7.47;6.77;;;18.40;43.60;;;;;;5047649;28;20563;-44
2021/04/22 01:50:21;;;;;;;8.13;7.43;;;18.50;43.50;;;;;;5052854;28;20254;-42
2021/04/22 01:52:47;;;;;;;7.80;7.03;;;18.60;43.50;;;;;;5046516;28;20443;-42
2021/04/22 01:55:17;;;;;;;8.33;7.63;;;18.70;43.00;;;;;;5044599;28;20770;-44
2021/04/22 01:57:42;;;;;;;8.60;7.80;;;18.70;42.80;;;;;;5042726;28;20304;-42
2021/04/22 02:00:18;;;;;;;8.07;7.37;;;18.80;42.70;;;;;;5044348;28;21051;-43
2021/04/22 02:02:44;;;;;;;8.63;6.47;;;18.80;42.50;;;;;;5046868;28;20278;-42
2021/04/22 02:05:12;;;;;;;8.90;7.90;;;18.80;42.60;;;;;;5042908;28;20538;-42
2021/04/22 02:07:38;;;;;;;9.47;8.60;;;18.80;42.90;;;;;;5045547;28;20200;-42
2021/04/22 02:10:06;;;;;;;8.90;8.10;;;18.80;42.70;;;;;;5051246;28;20842;-42
2021/04/22 02:12:32;;;;;;;8.40;7.60;;;18.80;42.70;;;;;;5052008;28;20258;-42
2021/04/22 02:14:57;;;;;;;8.80;7.90;;;18.60;43.10;;;;;;5050083;28;22033;-42
2021/04/22 02:17:23;;;;;;;7.90;7.20;;;18.40;43.40;;;;;;5051548;28;20192;-43
2021/04/22 02:19:49;;;;;;;9.37;8.30;;;18.20;43.80;;;;;;5050037;28;20189;-43
2021/04/22 02:22:14;;;;;;;7.97;7.17;;;18.00;44.10;;;;;;5050168;28;20268;-44
2021/04/22 02:24:40;;;;;;;7.87;7.10;;;18.00;44.30;;;;;;5051147;28;20206;-43
2021/04/22 02:27:06;;;;;;;8.20;7.30;;;18.00;44.40;;;;;;5044077;28;21271;-42
2021/04/22 02:29:32;;;;;;;8.30;7.50;;;17.90;44.50;;;;;;5049885;28;20197;-42
2021/04/22 02:31:57;;;;;;;7.70;6.77;;;18.00;44.60;;;;;;5050165;28;20961;-42
2021/04/22 02:34:23;;;;;;;9.67;8.00;;;18.00;44.40;;;;;;5046518;28;20220;-42
2021/04/22 02:36:49;;;;;;;7.50;6.80;;;18.20;44.40;;;;;;5049656;28;20189;-43
2021/04/22 02:39:14;;;;;;;8.77;6.07;;;18.30;44.00;;;;;;5049144;28;20573;-45
2021/04/22 02:41:40;;;;;;;9.50;7.83;;;18.30;43.70;;;;;;5046078;28;20586;-43
2021/04/22 02:44:06;;;;;;;9.63;7.63;;;18.40;43.70;;;;;;5051077;28;20200;-42
2021/04/22 02:46:31;;;;;;;8.80;7.53;;;18.40;43.80;;;;;;5047475;28;20652;-43
2021/04/22 02:48:57;;;;;;;9.40;8.40;;;18.40;43.80;;;;;;5049750;28;20257;-42
2021/04/22 02:51:23;;;;;;;8.57;7.77;;;18.30;43.80;;;;;;5049249;28;20280;-42
2021/04/22 02:53:48;;;;;;;8.60;7.50;;;18.30;44.60;;;;;;5047467;28;20678;-43
2021/04/22 02:56:14;;;;;;;9.47;8.47;;;18.40;43.90;;;;;;5044406;28;20280;-44
2021/04/22 02:58:39;;;;;;;10.67;8.50;;;18.50;43.80;;;;;;5045521;28;20207;-43
2021/04/22 03:01:05;;;;;;;10.37;9.03;;;18.60;43.60;;;;;;5049862;28;20286;-46
2021/04/22 03:03:30;;;;;;;10.03;9.00;;;18.60;43.50;;;;;;5046450;28;20241;-47
2021/04/22 03:05:57;;;;;;;12.23;9.57;;;18.50;43.70;;;;;;5048932;28;20223;-45
2021/04/22 03:08:23;;;;;;;15.80;10.63;;;18.40;43.80;;;;;;5048285;28;20239;-43
2021/04/22 03:10:49;;;;;;;10.93;9.40;;;18.20;44.00;;;;;;5050944;28;20473;-45
2021/04/22 03:13:15;;;;;;;9.70;8.70;;;18.20;44.40;;;;;;5045231;28;20942;-42
2021/04/22 03:15:41;;;;;;;11.97;9.47;;;18.10;44.50;;;;;;5045789;28;20831;-42
2021/04/22 03:18:07;;;;;;;10.83;9.50;;;18.10;45.20;;;;;;5048442;28;20455;-42
2021/04/22 03:20:33;;;;;;;9.43;8.27;;;18.00;44.80;;;;;;5049084;28;20224;-45
2021/04/22 03:22:58;;;;;;;10.57;9.47;;;18.10;44.90;;;;;;5046801;28;20451;-45
2021/04/22 03:25:25;;;;;;;10.57;9.57;;;18.20;44.80;;;;;;5047592;28;20195;-42
2021/04/22 03:27:51;;;;;;;10.90;9.90;;;18.00;44.80;;;;;;5047758;28;20196;-43
2021/04/22 03:30:19;;;;;;;16.37;10.30;;;17.90;44.90;;;;;;5048052;28;20946;-42
2021/04/22 03:32:44;;;;;;;12.53;10.90;;;17.90;45.30;;;;;;5045398;28;21021;-42
2021/04/22 03:35:12;;;;;;;12.60;11.13;;;17.90;45.50;;;;;;5049578;28;20508;-42
2021/04/22 03:37:38;;;;;;;12.60;11.27;;;17.80;45.40;;;;;;5046712;28;20656;-43
2021/04/22 03:40:06;;;;;;;12.80;11.10;;;17.80;45.50;;;;;;5050155;28;20455;-45
2021/04/22 03:42:31;;;;;;;12.20;11.10;;;17.80;45.50;;;;;;5045843;28;21016;-42
2021/04/22 03:44:57;;;;;;;13.77;11.37;;;17.80;45.60;;;;;;5041939;28;20474;-44
2021/04/22 03:47:23;;;;;;;13.47;12.07;;;17.80;45.70;;;;;;5049613;28;20188;-43
2021/04/22 03:49:49;;;;;;;13.70;12.37;;;17.70;45.70;;;;;;5047240;28;20195;-42
2021/04/22 03:52:14;;;;;;;14.63;12.27;;;17.70;45.60;;;;;;5049636;28;20203;-44
2021/04/22 03:54:40;;;;;;;14.23;12.60;;;17.70;45.70;;;;;;5046826;28;20581;-43
2021/04/22 03:57:06;;;;;;;13.23;11.50;;;17.60;45.60;;;;;;5047468;28;20191;-45
2021/04/22 03:59:32;;;;;;;13.90;12.50;;;17.70;45.60;;;;;;5045675;28;20242;-42
2021/04/22 04:01:58;;;;;;;13.20;11.10;;;17.60;45.50;;;;;;5047184;28;20487;-42
2021/04/22 04:04:24;;;;;;;12.87;11.57;;;17.60;45.50;;;;;;5047327;28;20247;-43
2021/04/22 04:06:49;;;;;;;13.07;11.67;;;17.60;45.70;;;;;;5049409;28;20196;-45
2021/04/22 04:09:15;;;;;;;13.73;11.30;;;17.60;45.60;;;;;;5049578;28;20272;-42
2021/04/22 04:11:40;;;;;;;10.00;9.00;;;17.70;45.50;;;;;;5038384;28;20251;-42
2021/04/22 04:14:06;;;;;;;11.80;10.70;;;17.70;45.50;;;;;;5049101;28;20203;-44
2021/04/22 04:16:32;;;;;;;11.93;9.47;;;17.90;45.60;;;;;;5022978;28;20283;-42
2021/04/22 04:18:57;;;;;;;9.57;8.67;;;18.00;45.30;;;;;;5049389;28;20300;-42
2021/04/22 04:21:23;;;;;;;13.37;11.30;;;18.10;45.10;;;;;;5045983;28;20650;-42
2021/04/22 04:23:49;;;;;;;15.00;12.87;;;18.30;44.80;;;;;;5048645;28;20199;-43
2021/04/22 04:26:15;;;;;;;13.73;12.40;;;18.30;44.40;;;;;;5046095;28;20590;-43
2021/04/22 04:28:40;;;;;;;11.93;10.33;;;18.40;44.20;;;;;;5049100;28;20438;-46
2021/04/22 04:31:06;;;;;;;12.07;10.67;;;18.40;44.10;;;;;;5051481;28;20295;-43
2021/04/22 04:33:32;;;;;;;11.60;10.50;;;18.50;43.90;;;;;;5050759;28;20204;-42
2021/04/22 04:35:57;;;;;;;13.33;11.90;;;18.60;43.80;;;;;;5048406;28;20231;-44
2021/04/22 04:38:23;;;;;;;12.20;10.90;;;18.70;43.50;;;;;;5051484;28;20197;-43
2021/04/22 04:40:49;;;;;;;13.13;11.73;;;18.70;43.20;;;;;;5043502;28;20232;-44
2021/04/22 04:43:14;;;;;;;13.47;12.10;;;18.70;43.10;;;;;;5051605;28;20188;-43
2021/04/22 04:45:40;;;;;;;12.87;11.57;;;18.80;43.10;;;;;;5049490;28;20566;-45
2021/04/22 04:48:06;;;;;;;16.60;12.83;;;18.80;42.80;;;;;;5049561;28;20192;-44
2021/04/22 04:50:31;;;;;;;13.00;11.10;;;18.80;42.90;;;;;;5052895;28;20193;-42
2021/04/22 04:52:57;;;;;;;11.87;10.63;;;18.80;42.40;;;;;;5036876;28;20442;-43
2021/04/22 04:55:23;;;;;;;13.60;12.10;;;18.70;42.80;;;;;;5052712;28;20196;-46
2021/04/22 04:57:48;;;;;;;15.80;12.07;;;18.80;42.60;;;;;;5047880;28;20196;-42
2021/04/22 05:00:17;;;;;;;13.20;11.90;;;18.70;42.40;;;;;;5047269;28;20228;-44
2021/04/22 05:02:43;;;;;;;14.60;13.10;;;18.60;42.40;;;;;;5047202;28;20192;-43
2021/04/22 05:05:09;;;;;;;18.00;12.30;;;18.50;42.60;;;;;;5051454;28;20457;-43
2021/04/22 05:07:35;;;;;;;14.00;12.60;;;18.30;42.70;;;;;;5046335;28;20283;-44
2021/04/22 05:10:00;;;;;;;14.17;12.77;;;18.20;43.00;;;;;;5052376;28;20469;-43
2021/04/22 05:12:26;;;;;;;15.53;13.93;;;18.10;43.30;;;;;;5046789;28;20199;-44
2021/04/22 05:14:51;;;;;;;13.63;12.33;;;17.90;43.60;;;;;;5049490;28;20192;-44
2021/04/22 05:17:17;;;;;;;15.83;14.03;;;17.80;44.00;;;;;;5046904;28;20189;-43
2021/04/22 05:19:44;;;;;;;14.50;13.00;;;17.70;44.20;;;;;;5049517;28;20279;-44
2021/04/22 05:22:10;;;;;;;21.33;14.43;;;17.70;44.50;;;;;;5046615;28;21074;-43
2021/04/22 05:24:36;;;;;;;14.00;12.70;;;17.60;44.80;;;;;;5049842;28;20447;-43
2021/04/22 05:27:02;;;;;;;18.10;12.97;;;17.50;44.90;;;;;;5052329;28;20510;-43
2021/04/22 05:29:27;;;;;;;15.50;13.80;;;17.50;45.00;;;;;;5052674;28;20311;-42
2021/04/22 05:31:53;;;;;;;17.40;15.20;;;17.50;45.20;;;;;;5051336;28;20267;-43
2021/04/22 05:34:18;;;;;;;17.03;13.93;;;17.40;45.20;;;;;;5049531;28;20232;-42
2021/04/22 05:36:44;;;;;;;18.70;14.53;;;17.30;45.50;;;;;;5043388;28;20205;-43
2021/04/22 05:39:10;;;;;;;18.77;16.10;;;17.20;45.50;;;;;;5051658;28;20192;-42
2021/04/22 05:41:36;;;;;;;19.00;16.30;;;17.20;45.70;;;;;;5049906;28;20243;-43
2021/04/22 05:44:03;;;;;;;15.90;14.10;;;17.10;45.90;;;;;;5053479;28;20200;-42
2021/04/22 05:46:28;;;;;;;21.83;15.50;;;17.10;46.10;;;;;;5050645;28;20450;-43
2021/04/22 05:48:54;;;;;;;17.93;16.13;;;17.10;46.30;;;;;;5052764;28;20918;-42
2021/04/22 05:51:20;;;;;;;17.80;15.20;;;17.10;46.40;;;;;;5050730;28;20188;-43
2021/04/22 05:53:45;;;;;;;20.53;15.33;;;17.00;46.50;;;;;;5051867;28;20342;-44
2021/04/22 05:56:11;;;;;;;18.10;16.00;;;17.00;46.60;;;;;;5050087;28;20439;-45
2021/04/22 05:58:37;;;;;;;16.03;14.37;;;17.10;46.70;;;;;;5051390;28;20193;-43
2021/04/22 06:01:04;;;;;;;22.23;15.70;;;17.00;46.80;;;;;;5050792;28;20232;-42
2021/04/22 06:03:30;;;;;;;18.10;15.30;;;17.10;46.80;;;;;;5051926;28;20185;-42
2021/04/22 06:05:55;;;;;;;19.30;15.80;;;17.10;46.70;;;;;;5037504;28;20447;-45
2021/04/22 06:08:21;;;;;;;20.40;16.03;;;17.00;46.80;;;;;;5046380;28;20189;-42
2021/04/22 06:10:46;;;;;;;22.17;16.53;;;17.10;46.90;;;;;;5052869;28;20207;-43
2021/04/22 06:13:13;;;;;;;20.23;16.50;;;17.00;47.00;;;;;;5051903;28;20197;-42
2021/04/22 06:15:39;;;;;;;16.93;14.93;;;16.90;46.80;;;;;;5037615;28;20204;-43
2021/04/22 06:18:06;;;;;;;18.97;15.50;;;16.90;46.90;;;;;;5041135;28;20427;-44
2021/04/22 06:20:32;;;;;;;19.90;16.83;;;17.00;47.20;;;;;;5052636;28;20513;-42
2021/04/22 06:22:57;;;;;;;18.13;16.23;;;17.00;47.90;;;;;;5051290;28;20431;-42
2021/04/22 06:25:24;;;;;;;18.60;16.70;;;16.90;47.40;;;;;;5052870;28;20200;-42
2021/04/22 06:27:50;;;;;;;19.57;15.90;;;16.90;47.40;;;;;;5052336;28;20188;-44
2021/04/22 06:30:17;;;;;;;19.10;15.63;;;16.80;47.60;;;;;;5050788;28;20431;-42
2021/04/22 06:32:42;;;;;;;20.93;17.17;;;16.80;47.80;;;;;;5040664;28;20897;-42
2021/04/22 06:35:09;;;;;;;21.23;15.93;;;16.70;47.90;;;;;;5050664;28;20483;-45
2021/04/22 06:37:35;;;;;;;17.20;15.40;;;16.50;48.00;;;;;;5051993;28;20551;-42
2021/04/22 06:40:01;;;;;;;18.10;15.13;;;16.60;48.00;;;;;;5051787;28;20446;-42
2021/04/22 06:42:26;;;;;;;22.90;16.27;;;16.60;48.00;;;;;;5049488;28;20291;-46
2021/04/22 06:44:52;;;;;;;17.03;15.10;;;16.60;48.40;;;;;;5048473;28;20587;-44
2021/04/22 06:47:18;;;;;;;18.80;16.40;;;16.60;48.40;;;;;;5050547;28;20668;-44
2021/04/22 06:49:44;;;;;;;20.93;16.00;;;16.70;48.20;;;;;;5050754;28;20933;-44
2021/04/22 06:52:09;;;;;;;20.80;15.73;;;16.60;48.00;;;;;;5049619;28;20209;-44
2021/04/22 06:54:35;;;;;;;18.20;16.30;;;16.60;48.10;;;;;;5051375;28;20207;-44
2021/04/22 06:57:01;;;;;;;19.03;17.03;;;16.60;48.10;;;;;;5051026;28;20700;-46
2021/04/22 06:59:27;;;;;;;18.97;15.43;;;16.70;48.20;;;;;;5051171;28;20785;-44
2021/04/22 07:01:53;;;;;;;16.10;14.40;;;16.70;48.10;;;;;;5049819;28;20494;-44
2021/04/22 07:04:19;;;;;;;22.90;15.60;;;16.80;48.10;;;;;;5052215;28;20427;-44
2021/04/22 07:06:45;;;;;;;17.20;14.07;;;16.90;47.70;;;;;;5051708;28;20253;-45
2021/04/22 07:09:11;;;;;;;17.73;14.80;;;17.00;47.60;;;;;;5051210;28;20197;-45
2021/04/22 07:11:37;;;;;;;17.77;14.83;;;17.00;47.60;;;;;;5050664;28;20439;-46
2021/04/22 07:14:03;;;;;;;16.50;14.30;;;17.10;47.10;;;;;;5051608;28;20446;-44
2021/04/22 07:16:28;;;;;;;17.30;13.50;;;17.10;46.40;;;;;;5050890;28;20193;-45
2021/04/22 07:18:54;;;;;;;21.43;14.27;;;17.00;46.30;;;;;;5051350;28;20672;-44
2021/04/22 07:21:20;;;;;;;19.53;14.07;;;17.10;46.50;;;;;;5050593;28;20228;-44
2021/04/22 07:23:45;;;;;;;17.23;13.73;;;17.20;47.00;;;;;;5051166;28;20197;-43
2021/04/22 07:26:11;;;;;;;19.00;14.50;;;17.50;46.80;;;;;;5049838;28;20493;-46
2021/04/22 07:28:37;;;;;;;15.80;12.90;;;17.60;45.90;;;;;;5049171;28;20263;-45
2021/04/22 07:31:03;;;;;;;14.50;12.40;;;17.70;45.60;;;;;;5050589;28;20647;-45
2021/04/22 07:33:28;;;;;;;20.73;14.30;;;17.90;45.90;;;;;;5050443;28;20225;-49
2021/04/22 07:35:54;;;;;;;15.70;13.43;;;18.00;45.00;;;;;;5050393;28;20243;-44
2021/04/22 07:38:20;;;;;;;15.40;13.80;;;18.10;44.90;;;;;;5050760;28;20273;-43
2021/04/22 07:40:46;;;;;;;16.97;14.03;;;18.20;44.90;;;;;;5047150;28;20490;-45
2021/04/22 07:43:13;;;;;;;18.07;13.00;;;18.30;43.70;;;;;;5050273;28;20860;-44
2021/04/22 07:45:41;;;;;;;22.53;14.60;;;18.30;43.70;;;;;;5051746;28;20197;-43
2021/04/22 07:48:08;;;;;;;14.43;12.20;;;18.30;44.00;;;;;;5050295;28;20435;-44
2021/04/22 07:50:35;;;;;;;18.70;14.00;;;18.10;44.40;;;;;;5050413;28;20809;-44
2021/04/22 07:53:04;;;;;;;16.43;13.23;;;18.10;44.80;;;;;;5050185;28;20838;-44
2021/04/22 07:55:33;;;;;;;15.07;12.97;;;18.10;44.60;;;;;;5050724;28;20796;-44
2021/04/22 07:58:00;;;;;;;15.10;12.67;;;17.90;44.90;;;;;;5044075;28;20447;-44
2021/04/22 08:00:27;;;;;;;14.37;12.80;;;17.90;44.50;;;;;;5045110;28;21122;-47
2021/04/22 08:02:54;;;;;;;19.87;13.40;;;17.90;44.40;;;;;;5051649;28;20427;-45
2021/04/22 08:05:23;;;;;;;17.33;12.23;;;18.10;44.50;;;;;;5043533;28;20443;-44
2021/04/22 08:07:48;;;;;;;16.40;12.30;;;18.20;43.90;;;;;;5051930;28;20802;-47
2021/04/22 08:10:18;;;;;;;15.47;11.20;;;18.20;43.60;;;;;;5050383;28;20466;-44
2021/04/22 08:12:44;;;;;;;11.40;10.30;;;18.30;43.90;;;;;;5051640;28;20188;-43
2021/04/22 08:15:11;;;;;;;16.27;11.57;;;18.40;43.50;;;;;;5052359;28;20439;-47
2021/04/22 08:17:41;;;;;;;13.57;10.70;;;18.40;42.50;;;;;;5046091;28;20274;-44
2021/04/22 08:20:10;;;;;;;16.43;12.90;;;18.50;42.30;;;;;;5052534;28;20461;-46
2021/04/22 08:22:37;;;;;;;17.10;13.57;;;18.60;42.20;;;;;;5055183;28;20438;-45
2021/04/22 08:25:08;;;;;;;16.50;11.97;;;18.70;41.60;;;;;;5051833;28;20496;-45
2021/04/22 08:27:34;;;;;;;12.53;10.63;;;18.90;41.30;;;;;;5052726;28;20477;-44
2021/04/22 08:30:00;;;;;;;13.80;11.20;;;19.00;41.40;;;;;;5052573;28;20865;-44
2021/04/22 08:32:26;;;;;;;15.70;11.70;;;19.00;40.90;;;;;;5052148;28;20192;-45
2021/04/22 08:34:51;;;;;;;16.70;12.70;;;19.10;40.60;;;;;;5051770;28;20708;-44
2021/04/22 08:37:17;;;;;;;14.27;12.80;;;19.00;41.10;;;;;;5051139;28;20834;-45
2021/04/22 08:39:43;;;;;;;14.77;11.87;;;19.10;41.10;;;;;;5053375;28;20200;-45
2021/04/22 08:42:08;;;;;;;14.23;11.90;;;19.20;41.30;;;;;;5052211;28;20250;-44
2021/04/22 08:44:35;;;;;;;15.00;11.20;;;19.40;41.60;;;;;;5052540;28;20442;-43
2021/04/22 08:47:01;;;;;;;14.50;11.33;;;19.30;40.80;;;;;;5052134;28;20250;-44
2021/04/22 08:49:28;;;;;;;12.77;11.43;;;19.60;41.20;;;;;;5053144;28;20525;-47
2021/04/22 08:51:55;;;;;;;15.30;11.90;;;19.80;41.00;;;;;;5051818;28;20427;-48
2021/04/22 08:54:22;;;;;;;16.07;11.97;;;20.00;40.10;;;;;;5049992;28;20442;-44
2021/04/22 08:56:48;;;;;;;13.50;10.30;;;20.30;39.60;;;;;;5051522;28;20434;-45
2021/04/22 08:59:14;;;;;;;11.20;9.57;;;20.40;39.60;;;;;;5051210;28;20442;-44
2021/04/22 09:01:40;;;;;;;18.73;11.00;;;20.50;39.40;;;;;;5050444;28;21012;-44
2021/04/22 09:04:06;;;;;;;13.47;10.80;;;20.70;38.60;;;;;;5052380;28;20773;-47
2021/04/22 09:06:36;;;;;;;13.20;10.97;;;20.90;38.50;;;;;;5050410;28;20208;-44
2021/04/22 09:09:05;;;;;;;16.00;11.40;;;20.90;37.20;;;;;;5048806;28;20434;-47
2021/04/22 09:11:30;;;;;;;13.30;10.83;;;21.00;37.60;;;;;;5050897;28;20431;-45
2021/04/22 09:13:56;;;;;;;12.37;11.10;;;21.20;37.30;;;;;;5052032;28;20439;-44
2021/04/22 09:16:28;;;;;;;10.90;9.90;;;21.30;36.50;;;;;;5046632;28;20250;-47
2021/04/22 09:18:57;;;;;;;14.63;10.50;;;21.30;35.90;;;;;;5052575;28;20199;-45
2021/04/22 09:21:29;;;;;;;15.17;10.10;;;21.10;35.70;;;;;;5044155;28;20490;-45
2021/04/22 09:24:16;;;;;;;10.27;9.07;;;21.10;36.30;;;;;;5049971;28;20862;-48
2021/04/22 09:26:51;;;;;;;11.47;8.47;;;21.00;35.80;;;;;;5049589;28;20442;-46
2021/04/22 09:29:29;;;;;;;10.07;8.40;;;21.00;36.10;;;;;;5052177;28;20449;-47
2021/04/22 09:32:05;;;;;;;12.00;8.63;;;21.10;36.60;;;;;;5049792;28;20501;-49
2021/04/22 09:34:30;;;;;;;10.00;7.80;;;21.20;37.10;;;;;;5051127;28;20561;-47
2021/04/22 09:36:56;;;;;;;9.30;8.30;;;21.40;37.30;;;;;;5052280;28;20538;-45
2021/04/22 09:39:27;;;;;;;9.97;8.00;;;21.70;36.30;;;;;;5051360;28;20223;-47
2021/04/22 09:41:59;;;;;;;10.63;7.60;;;22.00;35.10;;;;;;5052825;28;20347;-50
2021/04/22 09:44:26;;;;;;;9.57;8.57;;;22.00;33.90;;;;;;5047185;28;20439;-45
2021/04/22 09:47:09;;;;;;;9.90;7.47;;;22.00;33.50;;;;;;5049398;28;20439;-47
2021/04/22 09:49:50;;;;;;;7.40;6.37;;;21.90;34.90;;;;;;5047487;28;20474;-45
2021/04/22 09:52:18;;;;;;;10.03;8.43;;;22.10;35.30;;;;;;5043865;28;20871;-45
2021/04/22 09:54:48;;;;;;;13.47;8.37;;;22.20;34.60;;;;;;5052262;28;20510;-45
2021/04/22 09:57:30;;;;;;;10.63;6.87;;;22.20;33.90;;;;;;5051399;28;20435;-44
2021/04/22 09:59:57;;;;;;;12.33;7.47;;;22.30;34.90;;;;;;5050658;28;22395;-45
2021/04/22 10:02:23;;;;;;;8.40;6.27;;;22.40;33.40;;;;;;5050772;28;20482;-46
2021/04/22 10:04:53;;;;;;;14.23;8.03;;;22.50;33.90;;;;;;5051514;28;20435;-45
2021/04/22 10:07:30;;;;;;;9.70;7.40;;;22.50;33.50;;;;;;5051695;28;20854;-46
2021/04/22 10:09:58;;;;;;;8.63;6.63;;;22.70;33.70;;;;;;5052691;28;20454;-46
2021/04/22 10:12:26;;;;;;;8.67;6.43;;;22.80;32.10;;;;;;5051541;28;20780;-47
2021/04/22 10:14:52;;;;;;;10.07;6.40;;;23.00;30.90;;;;;;5051321;28;20513;-45
2021/04/22 10:17:25;;;;;;;7.93;6.47;;;23.10;30.20;;;;;;5049612;28;20438;-44
2021/04/22 10:20:05;;;;;;;12.40;5.30;;;23.10;30.50;;;;;;5052157;28;20211;-45
2021/04/22 10:22:43;;;;;;;9.60;6.20;;;23.10;30.60;;;;;;5050130;28;20946;-46
2021/04/22 10:25:31;;;;;;;8.60;5.90;;;23.10;31.10;;;;;;5049946;28;20443;-46
2021/04/22 10:28:12;;;;;;;8.40;6.03;;;23.20;30.30;;;;;;5041603;28;20438;-44
2021/04/22 10:30:40;;;;;;;10.63;5.70;;;23.10;29.80;;;;;;5051385;28;20439;-44
2021/04/22 10:33:06;;;;;;;8.23;6.20;;;23.00;29.80;;;;;;5050610;28;20552;-45
2021/04/22 10:35:35;;;;;;;9.97;5.30;;;22.90;29.80;;;;;;5051732;28;20470;-45
2021/04/22 10:38:02;;;;;;;7.47;5.40;;;22.90;30.00;;;;;;5046599;28;20496;-45
2021/04/22 10:40:32;;;;;;;11.73;6.00;;;22.90;29.40;;;;;;5050766;28;20582;-46
2021/04/22 10:43:00;;;;;;;7.50;5.53;;;22.90;30.10;;;;;;5050034;28;20492;-47
2021/04/22 10:45:27;;;;;;;8.53;6.17;;;23.10;30.20;;;;;;5048956;28;20450;-45
2021/04/22 10:47:53;;;;;;;9.00;5.47;;;23.20;29.50;;;;;;5050920;28;20447;-45
2021/04/22 10:50:23;;;;;;;7.63;5.10;;;23.30;29.10;;;;;;5046042;28;20976;-46
2021/04/22 10:52:51;;;;;;;7.30;4.97;;;23.30;28.70;;;;;;5050579;28;20276;-50
2021/04/22 10:55:27;;;;;;;11.20;5.97;;;23.40;30.10;;;;;;5051113;28;20467;-47
2021/04/22 10:57:55;;;;;;;8.80;5.67;;;23.40;30.50;;;;;;5050852;28;20446;-47
2021/04/22 11:00:26;;;;;;;6.27;5.50;;;23.60;28.50;;;;;;5050169;28;20763;-44
2021/04/22 11:02:55;;;;;;;7.07;5.43;;;23.80;28.50;;;;;;5050398;28;20564;-46
2021/04/22 11:05:27;;;;;;;11.77;5.10;;;23.80;28.10;;;;;;5051743;28;20439;-47
2021/04/22 11:08:08;;;;;;;6.80;4.70;;;23.80;28.00;;;;;;5050654;28;20435;-50
2021/04/22 11:10:40;;;;;;;8.77;5.20;;;23.70;27.40;;;;;;5043838;28;20462;-46
2021/04/22 11:13:27;;;;;;;6.10;4.87;;;23.80;29.00;;;;;;5038621;28;20464;-50
2021/04/22 11:15:53;;;;;;;7.17;4.83;;;24.00;28.20;;;;;;5050339;28;20435;-47
2021/04/22 11:18:19;;;;;;;9.10;4.40;;;23.90;26.50;;;;;;5050149;28;20919;-46
2021/04/22 11:20:46;;;;;;;7.40;5.20;;;23.80;27.80;;;;;;5050544;28;20216;-45
2021/04/22 11:23:17;;;;;;;7.20;4.57;;;23.90;27.20;;;;;;5050162;28;20858;-46
2021/04/22 11:25:53;;;;;;;6.50;4.93;;;24.00;26.00;;;;;;5048108;28;20431;-44
2021/04/22 11:28:30;;;;;;;7.63;3.90;;;23.90;25.60;;;;;;5049901;28;20845;-45
2021/04/22 11:31:11;;;;;;;7.50;3.80;;;23.40;24.80;;;;;;5049551;28;20535;-46
2021/04/22 11:33:38;;;;;;;4.63;3.47;;;23.30;25.50;;;;;;5050552;28;20447;-46
2021/04/22 11:36:17;;;;;;;6.47;4.53;;;23.00;24.70;;;;;;5049199;28;20506;-47
2021/04/22 11:38:56;;;;;;;6.70;3.80;;;22.90;24.80;;;;;;5049147;28;20514;-45
2021/04/22 11:41:24;;;;;;;5.23;3.77;;;23.20;25.80;;;;;;5046540;28;20578;-47
2021/04/22 11:44:11;;;;;;;6.50;3.83;;;23.50;25.30;;;;;;5046430;28;20484;-45
2021/04/22 11:46:45;;;;;;;6.03;4.17;;;23.80;25.30;;;;;;5043842;28;20431;-48
2021/04/22 11:49:30;;;;;;;6.17;3.13;;;23.70;24.40;;;;;;5041197;28;20438;-47
2021/04/22 11:51:57;;;;;;;5.93;3.67;;;23.70;23.60;;;;;;5042086;28;20434;-45
2021/04/22 11:54:24;;;;;;;5.03;3.30;;;23.50;23.60;;;;;;5041071;28;20435;-47
2021/04/22 11:56:59;;;;;;;6.80;3.90;;;23.50;23.90;;;;;;5046527;28;20443;-45
2021/04/22 11:59:26;;;;;;;8.77;3.70;;;23.50;23.60;;;;;;5047124;28;20481;-45
2021/04/22 12:01:58;;;;;;;4.33;3.23;;;23.60;23.90;;;;;;5042446;28;20497;-45
2021/04/22 12:04:38;;;;;;;4.53;2.90;;;23.60;24.20;;;;;;5043121;28;20451;-45
2021/04/22 12:07:08;;;;;;;5.67;3.10;;;23.70;22.40;;;;;;5046226;28;20493;-43
2021/04/22 12:09:34;;;;;;;7.60;4.10;;;23.60;22.80;;;;;;5038475;28;20431;-45
2021/04/22 12:12:07;;;;;;;3.83;2.80;;;23.10;23.00;;;;;;5049761;28;20530;-44
2021/04/22 12:14:32;;;;;;;8.43;3.40;;;23.00;22.50;;;;;;5051041;28;20427;-44
2021/04/22 12:16:58;;;;;;;5.60;3.50;;;22.90;21.90;;;;;;5050032;28;20436;-44
2021/04/22 12:19:27;;;;;;;4.50;3.43;;;22.90;22.70;;;;;;5051024;28;20238;-44
2021/04/22 12:21:54;;;;;;;4.17;2.90;;;22.70;22.00;;;;;;5049566;28;20228;-45
2021/04/22 12:24:22;;;;;;;3.23;2.93;;;22.80;22.10;;;;;;5050928;28;20438;-45
2021/04/22 12:26:48;;;;;;;5.23;3.03;;;22.90;22.50;;;;;;5049992;28;20542;-47
2021/04/22 12:29:16;;;;;;;4.07;3.10;;;23.10;23.60;;;;;;5044042;28;20442;-46
2021/04/22 12:31:50;;;;;;;3.67;2.70;;;23.60;22.60;;;;;;5034808;28;20799;-45
2021/04/22 12:34:24;;;;;;;5.07;2.97;;;23.60;22.00;;;;;;5036994;28;20775;-46
2021/04/22 12:37:10;;;;;;;3.87;3.43;;;23.50;22.30;;;;;;5026124;28;20483;-45